sensor_id;sensor_type;location;lat;lon;timestamp;pressure;altitude;pressure_sealevel;temperature;humidity
5053;BME280;2545;50.892;5.740;2023-04-26T00:00:42;56227.78;;;-142.21;100.00
5053;BME280;2545;50.892;5.740;2023-04-26T00:03:07;56237.59;;;-142.21;100.00
5053;BME280;2545;50.892;5.740;2023-04-26T00:05:33;56194.44;;;-142.21;100.00
5053;BME280;2545;50.892;5.740;2023-04-26T00:08:00;56178.75;;;-142.21;100.00
5053;BME280;2545;50.892;5.740;2023-04-26T00:10:25;56212.09;;;-142.21;100.00
5053;BME280;2545;50.892;5.740;2023-04-26T00:12:51;56210.13;;;-142.21;100.00
5053;BME280;2545;50.892;5.740;2023-04-26T00:15:16;56239.56;;;-142.21;100.00
5053;BME280;2545;50.892;5.740;2023-04-26T00:17:42;56247.38;;;-142.21;100.00
5053;BME280;2545;50.892;5.740;2023-04-26T00:20:08;56186.59;;;-142.21;100.00
5053;BME280;2545;50.892;5.740;2023-04-26T00:22:35;56229.75;;;-142.21;100.00
5053;BME280;2545;50.892;5.740;2023-04-26T00:25:01;56239.56;;;-142.21;100.00
5053;BME280;2545;50.892;5.740;2023-04-26T00:27:26;56235.63;;;-142.21;100.00
5053;BME280;2545;50.892;5.740;2023-04-26T00:29:51;56214.06;;;-142.21;100.00
5053;BME280;2545;50.892;5.740;2023-04-26T00:32:17;56267.00;;;-142.21;100.00
5053;BME280;2545;50.892;5.740;2023-04-26T00:34:42;56206.22;;;-142.21;100.00
5053;BME280;2545;50.892;5.740;2023-04-26T00:37:07;56235.63;;;-142.21;100.00
5053;BME280;2545;50.892;5.740;2023-04-26T00:39:32;56233.66;;;-142.21;100.00
5053;BME280;2545;50.892;5.740;2023-04-26T00:41:58;56233.66;;;-142.21;100.00
5053;BME280;2545;50.892;5.740;2023-04-26T00:44:23;56204.25;;;-142.21;100.00
5053;BME280;2545;50.892;5.740;2023-04-26T00:46:51;56267.00;;;-142.21;100.00
5053;BME280;2545;50.892;5.740;2023-04-26T00:49:18;56227.78;;;-142.21;100.00
5053;BME280;2545;50.892;5.740;2023-04-26T00:51:46;56198.38;;;-142.21;100.00
5053;BME280;2545;50.892;5.740;2023-04-26T00:54:12;56178.75;;;-142.21;100.00
5053;BME280;2545;50.892;5.740;2023-04-26T00:56:38;56210.13;;;-142.21;100.00
5053;BME280;2545;50.892;5.740;2023-04-26T00:59:04;56214.06;;;-142.21;100.00
5053;BME280;2545;50.892;5.740;2023-04-26T01:01:30;56206.22;;;-142.21;100.00
5053;BME280;2545;50.892;5.740;2023-04-26T01:03:55;56219.94;;;-142.21;100.00
5053;BME280;2545;50.892;5.740;2023-04-26T01:06:21;56212.09;;;-142.21;100.00
5053;BME280;2545;50.892;5.740;2023-04-26T01:08:46;56200.34;;;-142.21;100.00
5053;BME280;2545;50.892;5.740;2023-04-26T01:11:12;56190.53;;;-142.21;100.00
5053;BME280;2545;50.892;5.740;2023-04-26T01:13:39;56225.81;;;-142.21;100.00
5053;BME280;2545;50.892;5.740;2023-04-26T01:16:07;56237.59;;;-142.21;100.00
5053;BME280;2545;50.892;5.740;2023-04-26T01:18:33;56210.13;;;-142.21;100.00
5053;BME280;2545;50.892;5.740;2023-04-26T01:20:58;56214.06;;;-142.21;100.00
5053;BME280;2545;50.892;5.740;2023-04-26T01:23:24;56255.22;;;-142.21;100.00
5053;BME280;2545;50.892;5.740;2023-04-26T01:25:50;56206.22;;;-142.21;100.00
5053;BME280;2545;50.892;5.740;2023-04-26T01:28:15;56212.09;;;-142.21;100.00
5053;BME280;2545;50.892;5.740;2023-04-26T01:30:41;56259.16;;;-142.21;100.00
5053;BME280;2545;50.892;5.740;2023-04-26T01:33:07;56206.22;;;-142.21;100.00
5053;BME280;2545;50.892;5.740;2023-04-26T01:35:32;56237.59;;;-142.21;100.00
5053;BME280;2545;50.892;5.740;2023-04-26T01:37:57;56200.34;;;-142.21;100.00
5053;BME280;2545;50.892;5.740;2023-04-26T01:40:23;56257.19;;;-142.21;100.00
5053;BME280;2545;50.892;5.740;2023-04-26T01:42:48;56239.56;;;-142.21;100.00
5053;BME280;2545;50.892;5.740;2023-04-26T01:45:13;56229.75;;;-142.21;100.00
5053;BME280;2545;50.892;5.740;2023-04-26T01:47:39;56219.94;;;-142.21;100.00
5053;BME280;2545;50.892;5.740;2023-04-26T01:50:04;56216.00;;;-142.21;100.00
5053;BME280;2545;50.892;5.740;2023-04-26T01:52:30;56206.22;;;-142.21;100.00
5053;BME280;2545;50.892;5.740;2023-04-26T01:54:55;56221.91;;;-142.21;100.00
5053;BME280;2545;50.892;5.740;2023-04-26T01:57:21;56245.44;;;-142.21;100.00
5053;BME280;2545;50.892;5.740;2023-04-26T01:59:46;56259.16;;;-142.21;100.00
5053;BME280;2545;50.892;5.740;2023-04-26T02:02:12;56267.00;;;-142.21;100.00
5053;BME280;2545;50.892;5.740;2023-04-26T02:04:37;56219.94;;;-142.21;100.00
5053;BME280;2545;50.892;5.740;2023-04-26T02:07:02;56210.13;;;-142.21;100.00
5053;BME280;2545;50.892;5.740;2023-04-26T02:09:27;56237.59;;;-142.21;100.00
5053;BME280;2545;50.892;5.740;2023-04-26T02:11:53;56237.59;;;-142.21;100.00
5053;BME280;2545;50.892;5.740;2023-04-26T02:14:18;56233.66;;;-142.21;100.00
5053;BME280;2545;50.892;5.740;2023-04-26T02:16:44;56225.81;;;-142.21;100.00
5053;BME280;2545;50.892;5.740;2023-04-26T02:19:09;56255.22;;;-142.21;100.00
5053;BME280;2545;50.892;5.740;2023-04-26T02:21:51;56231.72;;;-142.21;100.00
5053;BME280;2545;50.892;5.740;2023-04-26T02:24:17;56227.78;;;-142.21;100.00
5053;BME280;2545;50.892;5.740;2023-04-26T02:26:42;56210.13;;;-142.21;100.00
5053;BME280;2545;50.892;5.740;2023-04-26T02:29:07;56206.22;;;-142.21;100.00
5053;BME280;2545;50.892;5.740;2023-04-26T02:31:33;56208.16;;;-142.21;100.00
5053;BME280;2545;50.892;5.740;2023-04-26T02:33:58;56219.94;;;-142.21;100.00
5053;BME280;2545;50.892;5.740;2023-04-26T02:36:23;56225.81;;;-142.21;100.00
5053;BME280;2545;50.892;5.740;2023-04-26T02:38:49;56186.59;;;-142.21;100.00
5053;BME280;2545;50.892;5.740;2023-04-26T02:41:15;56237.59;;;-142.21;100.00
5053;BME280;2545;50.892;5.740;2023-04-26T02:43:40;56268.97;;;-142.21;100.00
5053;BME280;2545;50.892;5.740;2023-04-26T02:46:06;56231.72;;;-142.21;100.00
5053;BME280;2545;50.892;5.740;2023-04-26T02:48:31;56194.44;;;-142.21;100.00
5053;BME280;2545;50.892;5.740;2023-04-26T02:50:57;56253.28;;;-142.21;100.00
5053;BME280;2545;50.892;5.740;2023-04-26T02:53:22;56200.34;;;-142.21;100.00
5053;BME280;2545;50.892;5.740;2023-04-26T02:55:47;56198.38;;;-142.21;100.00
5053;BME280;2545;50.892;5.740;2023-04-26T02:58:13;56225.81;;;-142.21;100.00
5053;BME280;2545;50.892;5.740;2023-04-26T03:00:38;56200.34;;;-142.21;100.00
5053;BME280;2545;50.892;5.740;2023-04-26T03:03:09;56210.13;;;-142.21;100.00
5053;BME280;2545;50.892;5.740;2023-04-26T03:05:34;56229.75;;;-142.21;100.00
5053;BME280;2545;50.892;5.740;2023-04-26T03:07:59;56214.06;;;-142.21;100.00
5053;BME280;2545;50.892;5.740;2023-04-26T03:10:25;56186.59;;;-142.21;100.00
5053;BME280;2545;50.892;5.740;2023-04-26T03:12:50;56241.50;;;-142.21;100.00
5053;BME280;2545;50.892;5.740;2023-04-26T03:15:15;56235.63;;;-142.21;100.00
5053;BME280;2545;50.892;5.740;2023-04-26T03:17:41;56225.81;;;-142.21;100.00
5053;BME280;2545;50.892;5.740;2023-04-26T03:20:07;56210.13;;;-142.21;100.00
5053;BME280;2545;50.892;5.740;2023-04-26T03:22:33;56241.50;;;-142.21;100.00
5053;BME280;2545;50.892;5.740;2023-04-26T03:24:58;56206.22;;;-142.21;100.00
5053;BME280;2545;50.892;5.740;2023-04-26T03:27:23;56212.09;;;-142.21;100.00
5053;BME280;2545;50.892;5.740;2023-04-26T03:29:48;56243.47;;;-142.21;100.00
5053;BME280;2545;50.892;5.740;2023-04-26T03:32:14;56206.22;;;-142.21;100.00
5053;BME280;2545;50.892;5.740;2023-04-26T03:34:39;56192.50;;;-142.21;100.00
5053;BME280;2545;50.892;5.740;2023-04-26T03:37:05;56192.50;;;-142.21;100.00
5053;BME280;2545;50.892;5.740;2023-04-26T03:39:30;56217.97;;;-142.21;100.00
5053;BME280;2545;50.892;5.740;2023-04-26T03:41:55;56196.41;;;-142.21;100.00
5053;BME280;2545;50.892;5.740;2023-04-26T03:44:21;56174.84;;;-142.21;100.00
5053;BME280;2545;50.892;5.740;2023-04-26T03:46:46;56231.72;;;-142.21;100.00
5053;BME280;2545;50.892;5.740;2023-04-26T03:49:11;56225.81;;;-142.21;100.00
5053;BME280;2545;50.892;5.740;2023-04-26T03:51:37;56198.38;;;-142.21;100.00
5053;BME280;2545;50.892;5.740;2023-04-26T03:54:03;56204.25;;;-142.21;100.00
5053;BME280;2545;50.892;5.740;2023-04-26T03:56:28;56212.09;;;-142.21;100.00
5053;BME280;2545;50.892;5.740;2023-04-26T03:58:53;56237.59;;;-142.21;100.00
5053;BME280;2545;50.892;5.740;2023-04-26T04:01:19;56231.72;;;-142.21;100.00
5053;BME280;2545;50.892;5.740;2023-04-26T04:03:44;56192.50;;;-142.21;100.00
5053;BME280;2545;50.892;5.740;2023-04-26T04:06:10;56198.38;;;-142.21;100.00
5053;BME280;2545;50.892;5.740;2023-04-26T04:08:36;56210.13;;;-142.21;100.00
5053;BME280;2545;50.892;5.740;2023-04-26T04:11:02;56227.78;;;-142.21;100.00
5053;BME280;2545;50.892;5.740;2023-04-26T04:13:27;56206.22;;;-142.21;100.00
5053;BME280;2545;50.892;5.740;2023-04-26T04:15:52;56241.50;;;-142.21;100.00
5053;BME280;2545;50.892;5.740;2023-04-26T04:18:18;56204.25;;;-142.21;100.00
5053;BME280;2545;50.892;5.740;2023-04-26T04:20:43;56182.69;;;-142.21;100.00
5053;BME280;2545;50.892;5.740;2023-04-26T04:23:09;56198.38;;;-142.21;100.00
5053;BME280;2545;50.892;5.740;2023-04-26T04:25:35;56206.22;;;-142.21;100.00
5053;BME280;2545;50.892;5.740;2023-04-26T04:28:01;56210.13;;;-142.21;100.00
5053;BME280;2545;50.892;5.740;2023-04-26T04:30:30;56257.19;;;-142.21;100.00
5053;BME280;2545;50.892;5.740;2023-04-26T04:32:56;56202.28;;;-142.21;100.00
5053;BME280;2545;50.892;5.740;2023-04-26T04:35:24;56247.38;;;-142.21;100.00
5053;BME280;2545;50.892;5.740;2023-04-26T04:37:53;56180.72;;;-142.21;100.00
5053;BME280;2545;50.892;5.740;2023-04-26T04:40:20;56225.81;;;-142.21;100.00
5053;BME280;2545;50.892;5.740;2023-04-26T04:42:46;56186.59;;;-142.21;100.00
5053;BME280;2545;50.892;5.740;2023-04-26T04:45:11;56229.75;;;-142.21;100.00
5053;BME280;2545;50.892;5.740;2023-04-26T04:47:36;56235.63;;;-142.21;100.00
5053;BME280;2545;50.892;5.740;2023-04-26T04:50:05;56237.59;;;-142.21;100.00
5053;BME280;2545;50.892;5.740;2023-04-26T04:52:30;56214.06;;;-142.21;100.00
5053;BME280;2545;50.892;5.740;2023-04-26T04:54:57;56192.50;;;-142.21;100.00
5053;BME280;2545;50.892;5.740;2023-04-26T04:57:23;56231.72;;;-142.21;100.00
5053;BME280;2545;50.892;5.740;2023-04-26T04:59:48;56210.13;;;-142.21;100.00
5053;BME280;2545;50.892;5.740;2023-04-26T05:02:13;56276.81;;;-142.21;100.00
5053;BME280;2545;50.892;5.740;2023-04-26T05:04:38;56245.44;;;-142.21;100.00
5053;BME280;2545;50.892;5.740;2023-04-26T05:07:04;56225.81;;;-142.21;100.00
5053;BME280;2545;50.892;5.740;2023-04-26T05:09:30;56190.53;;;-142.21;100.00
5053;BME280;2545;50.892;5.740;2023-04-26T05:11:56;56253.28;;;-142.21;100.00
5053;BME280;2545;50.892;5.740;2023-04-26T05:14:21;56233.66;;;-142.21;100.00
5053;BME280;2545;50.892;5.740;2023-04-26T05:16:46;56227.78;;;-142.21;100.00
5053;BME280;2545;50.892;5.740;2023-04-26T05:19:12;56225.81;;;-142.21;100.00
5053;BME280;2545;50.892;5.740;2023-04-26T05:21:38;56210.13;;;-142.21;100.00
5053;BME280;2545;50.892;5.740;2023-04-26T05:24:03;56223.84;;;-142.21;100.00
5053;BME280;2545;50.892;5.740;2023-04-26T05:26:29;56249.34;;;-142.21;100.00
5053;BME280;2545;50.892;5.740;2023-04-26T05:28:54;56188.56;;;-142.21;100.00
5053;BME280;2545;50.892;5.740;2023-04-26T05:31:20;56219.94;;;-142.21;100.00
5053;BME280;2545;50.892;5.740;2023-04-26T05:33:45;56233.66;;;-142.21;100.00
5053;BME280;2545;50.892;5.740;2023-04-26T05:36:11;56219.94;;;-142.21;100.00
5053;BME280;2545;50.892;5.740;2023-04-26T05:38:36;56217.97;;;-142.21;100.00
5053;BME280;2545;50.892;5.740;2023-04-26T05:41:02;56243.47;;;-142.21;100.00
5053;BME280;2545;50.892;5.740;2023-04-26T05:43:27;56212.09;;;-142.21;100.00
5053;BME280;2545;50.892;5.740;2023-04-26T05:45:54;56214.06;;;-142.21;100.00
5053;BME280;2545;50.892;5.740;2023-04-26T05:48:21;56237.59;;;-142.21;100.00
5053;BME280;2545;50.892;5.740;2023-04-26T05:50:47;56245.44;;;-142.21;100.00
5053;BME280;2545;50.892;5.740;2023-04-26T05:53:13;56225.81;;;-142.21;100.00
5053;BME280;2545;50.892;5.740;2023-04-26T05:55:40;56253.28;;;-142.21;100.00
5053;BME280;2545;50.892;5.740;2023-04-26T05:58:06;56182.69;;;-142.21;100.00
5053;BME280;2545;50.892;5.740;2023-04-26T06:00:31;56245.44;;;-142.21;100.00
5053;BME280;2545;50.892;5.740;2023-04-26T06:02:57;56210.13;;;-142.21;100.00
5053;BME280;2545;50.892;5.740;2023-04-26T06:05:22;56251.31;;;-142.21;100.00
5053;BME280;2545;50.892;5.740;2023-04-26T06:07:48;56204.25;;;-142.21;100.00
5053;BME280;2545;50.892;5.740;2023-04-26T06:10:13;56216.00;;;-142.21;100.00
5053;BME280;2545;50.892;5.740;2023-04-26T06:12:38;56229.75;;;-142.21;100.00
5053;BME280;2545;50.892;5.740;2023-04-26T06:15:04;56212.09;;;-142.21;100.00
5053;BME280;2545;50.892;5.740;2023-04-26T06:17:30;56241.50;;;-142.21;100.00
5053;BME280;2545;50.892;5.740;2023-04-26T06:19:55;56184.66;;;-142.21;100.00
5053;BME280;2545;50.892;5.740;2023-04-26T06:22:20;56249.34;;;-142.21;100.00
5053;BME280;2545;50.892;5.740;2023-04-26T06:24:46;56229.75;;;-142.21;100.00
5053;BME280;2545;50.892;5.740;2023-04-26T06:27:11;56241.50;;;-142.21;100.00
5053;BME280;2545;50.892;5.740;2023-04-26T06:29:37;56212.09;;;-142.21;100.00
5053;BME280;2545;50.892;5.740;2023-04-26T06:32:02;56237.59;;;-142.21;100.00
5053;BME280;2545;50.892;5.740;2023-04-26T06:34:27;56249.34;;;-142.21;100.00
5053;BME280;2545;50.892;5.740;2023-04-26T06:36:53;56270.91;;;-142.21;100.00
5053;BME280;2545;50.892;5.740;2023-04-26T06:39:18;56233.66;;;-142.21;100.00
5053;BME280;2545;50.892;5.740;2023-04-26T06:41:43;56227.78;;;-142.21;100.00
5053;BME280;2545;50.892;5.740;2023-04-26T06:44:09;56233.66;;;-142.21;98.54
5053;BME280;2545;50.892;5.740;2023-04-26T06:46:34;56219.94;;;-142.21;97.96
5053;BME280;2545;50.892;5.740;2023-04-26T06:49:00;56225.81;;;-142.21;92.04
5053;BME280;2545;50.892;5.740;2023-04-26T06:51:25;56233.66;;;-142.21;91.18
5053;BME280;2545;50.892;5.740;2023-04-26T06:53:51;56219.94;;;-142.21;90.01
5053;BME280;2545;50.892;5.740;2023-04-26T06:56:17;56243.47;;;-142.21;87.93
5053;BME280;2545;50.892;5.740;2023-04-26T06:58:58;56221.91;;;-142.21;87.25
5053;BME280;2545;50.892;5.740;2023-04-26T07:01:24;56233.66;;;-142.21;87.23
5053;BME280;2545;50.892;5.740;2023-04-26T07:03:50;56257.19;;;-142.21;82.99
5053;BME280;2545;50.892;5.740;2023-04-26T07:06:15;56225.81;;;-142.21;82.53
5053;BME280;2545;50.892;5.740;2023-04-26T07:08:41;56198.38;;;-142.21;79.74
5053;BME280;2545;50.892;5.740;2023-04-26T07:11:11;56243.47;;;-142.21;78.79
5053;BME280;2545;50.892;5.740;2023-04-26T07:13:36;56210.13;;;-142.21;77.62
5053;BME280;2545;50.892;5.740;2023-04-26T07:16:01;56210.13;;;-142.21;74.71
5053;BME280;2545;50.892;5.740;2023-04-26T07:18:27;56194.44;;;-142.21;75.12
5053;BME280;2545;50.892;5.740;2023-04-26T07:20:52;56202.28;;;-142.21;75.18
5053;BME280;2545;50.892;5.740;2023-04-26T07:23:17;56257.19;;;-142.21;73.67
5053;BME280;2545;50.892;5.740;2023-04-26T07:25:43;56210.13;;;-142.21;72.88
5053;BME280;2545;50.892;5.740;2023-04-26T07:28:08;56217.97;;;-142.21;71.34
5053;BME280;2545;50.892;5.740;2023-04-26T07:30:33;56217.97;;;-142.21;71.21
5053;BME280;2545;50.892;5.740;2023-04-26T07:32:58;56214.06;;;-142.21;71.60
5053;BME280;2545;50.892;5.740;2023-04-26T07:35:24;56231.72;;;-142.21;71.09
5053;BME280;2545;50.892;5.740;2023-04-26T07:37:50;56237.59;;;-142.21;70.24
5053;BME280;2545;50.892;5.740;2023-04-26T07:40:15;56217.97;;;-142.21;69.98
5053;BME280;2545;50.892;5.740;2023-04-26T07:42:41;56204.25;;;-142.21;67.33
5053;BME280;2545;50.892;5.740;2023-04-26T07:45:06;56194.44;;;-142.21;67.27
5053;BME280;2545;50.892;5.740;2023-04-26T07:47:32;56198.38;;;-142.21;66.94
5053;BME280;2545;50.892;5.740;2023-04-26T07:49:57;56210.13;;;-142.21;66.43
5053;BME280;2545;50.892;5.740;2023-04-26T07:52:23;56217.97;;;-142.21;65.72
5053;BME280;2545;50.892;5.740;2023-04-26T07:54:48;56186.59;;;-142.21;65.73
5053;BME280;2545;50.892;5.740;2023-04-26T07:57:14;56210.13;;;-142.21;64.89
5053;BME280;2545;50.892;5.740;2023-04-26T07:59:39;56219.94;;;-142.21;64.41
5053;BME280;2545;50.892;5.740;2023-04-26T08:02:05;56216.00;;;-142.21;62.58
5053;BME280;2545;50.892;5.740;2023-04-26T08:04:32;56225.81;;;-142.21;60.97
5053;BME280;2545;50.892;5.740;2023-04-26T08:06:58;56227.78;;;-142.21;60.31
5053;BME280;2545;50.892;5.740;2023-04-26T08:09:23;56174.84;;;-142.21;60.94
5053;BME280;2545;50.892;5.740;2023-04-26T08:11:48;56206.22;;;-142.21;61.41
5053;BME280;2545;50.892;5.740;2023-04-26T08:14:14;56188.56;;;-142.21;61.48
5053;BME280;2545;50.892;5.740;2023-04-26T08:16:39;56202.28;;;-142.21;61.37
5053;BME280;2545;50.892;5.740;2023-04-26T08:19:05;56174.84;;;-142.21;61.09
5053;BME280;2545;50.892;5.740;2023-04-26T08:21:31;56172.88;;;-142.21;61.26
5053;BME280;2545;50.892;5.740;2023-04-26T08:23:56;56194.44;;;-142.21;62.76
5053;BME280;2545;50.892;5.740;2023-04-26T08:26:22;56223.84;;;-142.21;60.94
5053;BME280;2545;50.892;5.740;2023-04-26T08:28:47;56227.78;;;-142.21;60.31
5053;BME280;2545;50.892;5.740;2023-04-26T08:31:13;56178.75;;;-142.21;57.44
5053;BME280;2545;50.892;5.740;2023-04-26T08:33:38;56206.22;;;-142.21;56.52
5053;BME280;2545;50.892;5.740;2023-04-26T08:36:04;56204.25;;;-142.21;55.44
5053;BME280;2545;50.892;5.740;2023-04-26T08:38:29;56174.84;;;-142.21;55.67
5053;BME280;2545;50.892;5.740;2023-04-26T08:40:58;56188.56;;;-142.21;55.29
5053;BME280;2545;50.892;5.740;2023-04-26T08:43:24;56208.16;;;-142.21;54.27
5053;BME280;2545;50.892;5.740;2023-04-26T08:45:51;56221.91;;;-142.21;55.06
5053;BME280;2545;50.892;5.740;2023-04-26T08:48:17;56212.09;;;-142.21;54.49
5053;BME280;2545;50.892;5.740;2023-04-26T08:50:43;56210.13;;;-142.21;53.65
5053;BME280;2545;50.892;5.740;2023-04-26T08:53:13;56176.78;;;-142.21;53.02
5053;BME280;2545;50.892;5.740;2023-04-26T08:55:40;56202.28;;;-142.21;50.73
5053;BME280;2545;50.892;5.740;2023-04-26T08:58:05;56168.97;;;-142.21;49.93
5053;BME280;2545;50.892;5.740;2023-04-26T09:00:31;56200.34;;;-142.21;50.26
5053;BME280;2545;50.892;5.740;2023-04-26T09:02:57;56170.91;;;-142.21;50.56
5053;BME280;2545;50.892;5.740;2023-04-26T09:05:22;56178.75;;;-142.21;50.04
5053;BME280;2545;50.892;5.740;2023-04-26T09:07:49;56194.44;;;-142.21;49.48
5053;BME280;2545;50.892;5.740;2023-04-26T09:10:19;56161.13;;;-142.21;47.70
5053;BME280;2545;50.892;5.740;2023-04-26T09:12:46;56188.56;;;-142.21;49.37
5053;BME280;2545;50.892;5.740;2023-04-26T09:15:14;56151.31;;;-142.21;46.97
5053;BME280;2545;50.892;5.740;2023-04-26T09:17:39;56184.66;;;-142.21;44.23
5053;BME280;2545;50.892;5.740;2023-04-26T09:22:44;56168.97;;;-142.21;42.42
5053;BME280;2545;50.892;5.740;2023-04-26T09:25:10;56161.13;;;-142.21;43.09
5053;BME280;2545;50.892;5.740;2023-04-26T09:27:40;56182.69;;;-142.21;42.35
5053;BME280;2545;50.892;5.740;2023-04-26T09:30:15;56202.28;;;-142.21;40.99
5053;BME280;2545;50.892;5.740;2023-04-26T09:32:53;56151.31;;;-142.21;40.37
5053;BME280;2545;50.892;5.740;2023-04-26T09:35:34;56194.44;;;-142.21;41.31
5053;BME280;2545;50.892;5.740;2023-04-26T09:38:20;56157.19;;;-142.21;41.56
5053;BME280;2545;50.892;5.740;2023-04-26T09:40:47;56202.28;;;-142.21;41.60
5053;BME280;2545;50.892;5.740;2023-04-26T09:43:14;56145.44;;;-142.21;41.51
5053;BME280;2545;50.892;5.740;2023-04-26T09:45:49;56212.09;;;-142.21;41.26
5053;BME280;2545;50.892;5.740;2023-04-26T09:48:24;56178.75;;;-142.21;40.93
5053;BME280;2545;50.892;5.740;2023-04-26T09:50:52;56151.31;;;-142.21;40.02
5053;BME280;2545;50.892;5.740;2023-04-26T09:58:32;56190.53;;;-142.21;38.33
5053;BME280;2545;50.892;5.740;2023-04-26T10:00:58;56153.28;;;-142.21;37.73
5053;BME280;2545;50.892;5.740;2023-04-26T10:03:24;56172.88;;;-142.21;38.63
5053;BME280;2545;50.892;5.740;2023-04-26T10:05:49;56172.88;;;-142.21;37.88
5053;BME280;2545;50.892;5.740;2023-04-26T10:08:14;56168.97;;;-142.21;38.54
5053;BME280;2545;50.892;5.740;2023-04-26T10:10:41;56159.16;;;-142.21;38.54
5053;BME280;2545;50.892;5.740;2023-04-26T10:13:07;56178.75;;;-142.21;35.76
5053;BME280;2545;50.892;5.740;2023-04-26T10:15:33;56170.91;;;-142.21;34.75
5053;BME280;2545;50.892;5.740;2023-04-26T10:17:59;56165.03;;;-142.21;34.43
5053;BME280;2545;50.892;5.740;2023-04-26T10:20:27;56149.34;;;-142.21;33.33
5053;BME280;2545;50.892;5.740;2023-04-26T10:22:55;56188.56;;;-142.21;33.59
5053;BME280;2545;50.892;5.740;2023-04-26T10:25:39;56119.94;;;-142.21;33.47
5053;BME280;2545;50.892;5.740;2023-04-26T10:28:06;56147.38;;;-142.21;33.54
5053;BME280;2545;50.892;5.740;2023-04-26T10:30:32;56123.84;;;-142.21;34.13
5053;BME280;2545;50.892;5.740;2023-04-26T10:35:27;56149.34;;;-142.21;35.53
5053;BME280;2545;50.892;5.740;2023-04-26T10:40:28;56208.16;;;-142.21;37.04
5053;BME280;2545;50.892;5.740;2023-04-26T10:45:43;56165.03;;;-142.21;35.98
5053;BME280;2545;50.892;5.740;2023-04-26T10:48:22;56147.38;;;-142.21;36.13
5053;BME280;2545;50.892;5.740;2023-04-26T10:53:33;56176.78;;;-142.21;36.58
5053;BME280;2545;50.892;5.740;2023-04-26T10:58:49;56155.22;;;-142.21;32.64
5053;BME280;2545;50.892;5.740;2023-04-26T11:01:31;56129.75;;;-142.21;32.62
5053;BME280;2545;50.892;5.740;2023-04-26T11:06:22;56133.66;;;-142.21;31.89
5053;BME280;2545;50.892;5.740;2023-04-26T11:08:47;56147.38;;;-142.21;30.88
5053;BME280;2545;50.892;5.740;2023-04-26T11:11:15;56114.06;;;-142.21;29.57
5053;BME280;2545;50.892;5.740;2023-04-26T11:13:42;56078.75;;;-142.21;30.43
5053;BME280;2545;50.892;5.740;2023-04-26T11:16:08;56086.59;;;-142.21;29.96
5053;BME280;2545;50.892;5.740;2023-04-26T11:18:35;56090.53;;;-142.21;30.49
5053;BME280;2545;50.892;5.740;2023-04-26T11:21:02;56098.38;;;-142.21;29.93
5053;BME280;2545;50.892;5.740;2023-04-26T11:23:29;56112.09;;;-142.21;29.89
5053;BME280;2545;50.892;5.740;2023-04-26T11:25:59;56147.38;;;-142.21;30.23
5053;BME280;2545;50.892;5.740;2023-04-26T11:28:27;56100.31;;;-142.21;30.89
5053;BME280;2545;50.892;5.740;2023-04-26T11:30:52;56094.44;;;-142.21;30.68
5053;BME280;2545;50.892;5.740;2023-04-26T11:33:19;56084.63;;;-142.21;30.98
5053;BME280;2545;50.892;5.740;2023-04-26T11:35:48;56084.63;;;-142.21;30.80
5053;BME280;2545;50.892;5.740;2023-04-26T11:38:14;56117.97;;;-142.21;29.39
5053;BME280;2545;50.892;5.740;2023-04-26T11:40:40;56139.53;;;-142.21;30.39
5053;BME280;2545;50.892;5.740;2023-04-26T11:43:06;56080.72;;;-142.21;31.43
5053;BME280;2545;50.892;5.740;2023-04-26T11:45:33;56110.13;;;-142.21;30.33
5053;BME280;2545;50.892;5.740;2023-04-26T11:48:01;56112.09;;;-142.21;30.09
5053;BME280;2545;50.892;5.740;2023-04-26T11:50:28;56078.75;;;-142.21;28.74
5053;BME280;2545;50.892;5.740;2023-04-26T11:52:59;56061.09;;;-142.21;30.09
5053;BME280;2545;50.892;5.740;2023-04-26T11:55:28;56067.00;;;-142.21;28.95
5053;BME280;2545;50.892;5.740;2023-04-26T11:57:56;56100.31;;;-142.21;29.28
5053;BME280;2545;50.892;5.740;2023-04-26T12:00:22;56072.88;;;-142.21;28.67
5053;BME280;2545;50.892;5.740;2023-04-26T12:02:48;56096.41;;;-142.21;27.87
5053;BME280;2545;50.892;5.740;2023-04-26T12:05:24;56065.03;;;-142.21;27.43
5053;BME280;2545;50.892;5.740;2023-04-26T12:07:59;56039.53;;;-142.21;27.70
5053;BME280;2545;50.892;5.740;2023-04-26T12:10:26;56104.25;;;-142.21;27.38
5053;BME280;2545;50.892;5.740;2023-04-26T12:12:53;56084.63;;;-142.21;27.45
5053;BME280;2545;50.892;5.740;2023-04-26T12:15:28;56076.78;;;-142.21;27.54
5053;BME280;2545;50.892;5.740;2023-04-26T12:17:59;56041.50;;;-142.21;27.89
5053;BME280;2545;50.892;5.740;2023-04-26T12:20:27;56116.00;;;-142.21;27.37
5053;BME280;2545;50.892;5.740;2023-04-26T12:23:04;56043.47;;;-142.21;27.56
5053;BME280;2545;50.892;5.740;2023-04-26T12:25:31;56057.19;;;-142.21;26.42
5053;BME280;2545;50.892;5.740;2023-04-26T12:27:57;56004.25;;;-142.21;25.47
5053;BME280;2545;50.892;5.740;2023-04-26T12:30:23;56035.63;;;-142.21;26.10
5053;BME280;2545;50.892;5.740;2023-04-26T12:32:49;56021.88;;;-142.21;25.00
5053;BME280;2545;50.892;5.740;2023-04-26T12:35:14;56004.25;;;-142.21;24.71
5053;BME280;2545;50.892;5.740;2023-04-26T12:37:40;56037.56;;;-142.21;26.36
5053;BME280;2545;50.892;5.740;2023-04-26T12:40:05;56017.97;;;-142.21;26.00
5053;BME280;2545;50.892;5.740;2023-04-26T12:42:31;56014.06;;;-142.21;25.06
5053;BME280;2545;50.892;5.740;2023-04-26T12:44:57;55996.41;;;-142.21;24.27
5053;BME280;2545;50.892;5.740;2023-04-26T12:47:22;56010.13;;;-142.21;24.23
5053;BME280;2545;50.892;5.740;2023-04-26T12:49:47;55974.84;;;-142.21;23.86
5053;BME280;2545;50.892;5.740;2023-04-26T12:52:13;55970.91;;;-142.21;24.76
5053;BME280;2545;50.892;5.740;2023-04-26T12:54:38;56014.06;;;-142.21;23.57
5053;BME280;2545;50.892;5.740;2023-04-26T12:57:04;55980.72;;;-142.21;24.71
5053;BME280;2545;50.892;5.740;2023-04-26T12:59:30;55990.53;;;-142.21;23.58
5053;BME280;2545;50.892;5.740;2023-04-26T13:01:55;56027.78;;;-142.21;23.64
5053;BME280;2545;50.892;5.740;2023-04-26T13:04:20;56025.81;;;-142.21;24.20
5053;BME280;2545;50.892;5.740;2023-04-26T13:06:46;56021.88;;;-142.21;23.83
5053;BME280;2545;50.892;5.740;2023-04-26T13:09:11;56004.25;;;-142.21;24.16
5053;BME280;2545;50.892;5.740;2023-04-26T13:11:38;56017.97;;;-142.21;24.59
5053;BME280;2545;50.892;5.740;2023-04-26T13:14:03;56017.97;;;-142.21;24.05